Time;durP1;ratioP1;P1;durP2;ratioP2;P2;SDS_P1;SDS_P2;PMS_P1;PMS_P2;Temp;Humidity;BMP_temperature;BMP_pressure;BME280_temperature;BME280_humidity;BME280_pressure;Samples;Min_cycle;Max_cycle;Signal;HPM_P1;HPM_P2
2023/08/04 00:00:45;;;;;;;7.97;6.50;;;16.00;99.90;;;;;;4994630;28;20518;-90
2023/08/04 00:03:12;;;;;;;9.90;6.67;;;16.00;99.90;;;;;;4994548;28;20451;-90
2023/08/04 00:05:40;;;;;;;6.00;5.50;;;16.00;99.90;;;;;;4992353;28;20858;-90
2023/08/04 00:08:06;;;;;;;9.20;5.50;;;16.00;99.90;;;;;;4980838;28;20487;-90
2023/08/04 00:10:33;;;;;;;11.03;6.07;;;16.10;99.90;;;;;;4994415;28;20460;-88
2023/08/04 00:13:00;;;;;;;11.03;6.30;;;16.00;99.90;;;;;;4994124;28;20470;-90
2023/08/04 00:15:26;;;;;;;11.43;5.80;;;16.00;99.90;;;;;;4994164;28;20459;-90
2023/08/04 00:17:53;;;;;;;8.13;5.30;;;16.10;99.90;;;;;;4993490;28;20895;-90
2023/08/04 00:20:20;;;;;;;12.97;5.57;;;16.10;99.90;;;;;;4994078;28;20513;-89
2023/08/04 00:22:48;;;;;;;9.13;5.33;;;16.10;99.90;;;;;;4977885;28;20430;-90
2023/08/04 00:25:14;;;;;;;12.30;6.40;;;16.00;99.90;;;;;;4994610;28;20455;-90
2023/08/04 00:27:41;;;;;;;8.27;5.57;;;16.10;99.90;;;;;;4983090;28;20456;-90
2023/08/04 00:30:10;;;;;;;8.23;4.90;;;16.00;99.90;;;;;;4982937;28;20431;-90
2023/08/04 00:32:37;;;;;;;4.93;4.50;;;16.00;99.90;;;;;;4982649;28;20885;-90
2023/08/04 00:35:05;;;;;;;6.43;4.63;;;16.00;99.90;;;;;;4974499;28;20838;-91
2023/08/04 00:37:33;;;;;;;5.33;4.50;;;16.00;99.90;;;;;;4991610;28;20455;-90
2023/08/04 00:40:02;;;;;;;10.50;5.27;;;16.10;99.90;;;;;;4988885;28;20461;-90
2023/08/04 00:42:29;;;;;;;8.43;5.33;;;16.00;99.90;;;;;;4983330;28;20426;-90
2023/08/04 00:44:55;;;;;;;6.33;5.33;;;16.00;99.90;;;;;;4993877;28;20426;-89
2023/08/04 00:47:24;;;;;;;8.50;4.60;;;16.00;99.90;;;;;;4993426;28;20421;-89
2023/08/04 00:49:52;;;;;;;5.40;4.87;;;15.90;99.90;;;;;;4989450;28;20458;-90
2023/08/04 00:52:19;;;;;;;8.07;4.70;;;16.10;99.90;;;;;;4981631;28;20486;-90
2023/08/04 00:54:47;;;;;;;8.83;5.20;;;15.90;99.90;;;;;;4977949;28;20454;-90
2023/08/04 00:57:15;;;;;;;9.33;4.83;;;15.90;99.90;;;;;;4977780;28;20445;-90
2023/08/04 00:59:42;;;;;;;9.20;5.33;;;16.00;99.90;;;;;;4992659;28;20541;-90
2023/08/04 01:02:09;;;;;;;9.67;5.40;;;15.90;99.90;;;;;;4994211;28;21190;-90
2023/08/04 01:04:36;;;;;;;5.40;4.90;;;16.00;99.90;;;;;;4997382;28;20457;-91
2023/08/04 01:07:16;;;;;;;6.37;5.13;;;16.00;99.90;;;;;;4996919;28;20418;-90
2023/08/04 01:09:50;;;;;;;10.03;5.30;;;15.90;99.90;;;;;;4985129;28;20533;-90
2023/08/04 01:12:24;;;;;;;10.83;5.53;;;16.00;99.90;;;;;;4993070;28;20465;-90
2023/08/04 01:14:53;;;;;;;6.33;5.00;;;16.00;99.90;;;;;;4993192;28;20872;-90
2023/08/04 01:17:25;;;;;;;9.27;5.20;;;16.00;99.90;;;;;;4993009;28;20465;-89
2023/08/04 01:19:52;;;;;;;8.77;4.77;;;16.00;99.90;;;;;;4993027;28;20825;-90
2023/08/04 01:22:21;;;;;;;6.13;4.27;;;16.00;99.90;;;;;;4977213;28;20486;-90
2023/08/04 01:24:48;;;;;;;8.50;4.93;;;16.00;99.90;;;;;;4976705;28;20450;-89
2023/08/04 01:27:18;;;;;;;14.97;5.53;;;16.00;99.90;;;;;;4993092;28;21039;-90
2023/08/04 01:29:47;;;;;;;11.67;4.50;;;15.90;99.90;;;;;;4992764;28;20967;-90
2023/08/04 01:32:13;;;;;;;7.53;5.70;;;15.90;99.90;;;;;;4983686;28;20874;-91
2023/08/04 01:34:44;;;;;;;10.63;5.03;;;15.90;99.90;;;;;;4991571;28;20425;-90
2023/08/04 01:37:11;;;;;;;17.10;5.40;;;15.90;99.90;;;;;;4985109;28;20481;-90
2023/08/04 01:39:39;;;;;;;5.90;5.30;;;15.90;99.90;;;;;;4992979;28;20483;-91
2023/08/04 01:42:06;;;;;;;9.17;5.30;;;15.90;99.90;;;;;;4987336;28;21005;-91
2023/08/04 01:44:33;;;;;;;7.93;5.30;;;15.80;99.90;;;;;;4981468;28;20467;-91
2023/08/04 01:47:00;;;;;;;9.47;5.17;;;15.80;99.90;;;;;;4978083;28;20599;-88
2023/08/04 01:49:26;;;;;;;12.43;5.27;;;15.80;99.90;;;;;;4983553;28;20472;-90
2023/08/04 01:51:53;;;;;;;11.23;6.07;;;15.80;99.90;;;;;;4993242;28;20488;-90
2023/08/04 01:54:20;;;;;;;11.27;5.60;;;15.80;99.90;;;;;;4993726;28;20457;-89
2023/08/04 01:56:48;;;;;;;7.83;5.63;;;15.70;99.90;;;;;;4993869;28;20924;-92
2023/08/04 01:59:15;;;;;;;9.03;6.30;;;15.80;99.90;;;;;;4987094;28;20447;-91
2023/08/04 02:01:42;;;;;;;7.43;5.10;;;16.00;99.90;;;;;;4984871;28;20435;-90
2023/08/04 02:04:08;;;;;;;10.17;6.10;;;15.80;99.90;;;;;;4993434;28;20501;-90
2023/08/04 02:06:35;;;;;;;11.30;5.93;;;15.80;99.90;;;;;;4983962;28;20996;-90
2023/08/04 02:09:03;;;;;;;8.43;6.37;;;15.80;99.90;;;;;;4992478;28;20904;-90
2023/08/04 02:11:30;;;;;;;12.63;6.50;;;15.90;99.90;;;;;;4996051;28;20860;-90
2023/08/04 02:13:58;;;;;;;10.67;5.90;;;15.90;99.90;;;;;;4996309;28;20457;-90
2023/08/04 02:16:25;;;;;;;12.23;6.47;;;15.70;99.90;;;;;;4996053;28;20482;-90
2023/08/04 02:18:52;;;;;;;6.63;6.03;;;15.70;99.90;;;;;;4988311;28;20441;-89
2023/08/04 02:21:19;;;;;;;8.27;6.40;;;15.70;99.90;;;;;;4990248;28;20452;-89
2023/08/04 02:23:46;;;;;;;9.23;6.70;;;15.70;99.90;;;;;;4979927;28;20431;-90
2023/08/04 02:26:12;;;;;;;9.30;5.70;;;15.60;99.90;;;;;;4996395;28;20459;-90
2023/08/04 02:28:39;;;;;;;12.07;6.20;;;15.60;99.90;;;;;;4994413;28;20449;-90
2023/08/04 02:31:07;;;;;;;8.03;6.23;;;15.60;99.90;;;;;;4981592;28;20518;-90
2023/08/04 02:33:34;;;;;;;7.13;6.03;;;15.60;99.90;;;;;;5004716;28;20458;-94
2023/08/04 02:36:01;;;;;;;17.13;7.00;;;15.60;99.90;;;;;;5021152;28;20405;-93
2023/08/04 02:38:27;;;;;;;8.37;6.23;;;15.60;99.90;;;;;;5007751;28;20528;-90
2023/08/04 02:40:54;;;;;;;7.73;6.57;;;15.40;99.90;;;;;;4979493;28;20437;-90
2023/08/04 02:43:21;;;;;;;8.30;6.30;;;15.60;99.90;;;;;;4995769;28;20501;-90
2023/08/04 02:45:48;;;;;;;10.43;6.40;;;15.50;99.90;;;;;;4995751;28;20961;-90
2023/08/04 02:48:17;;;;;;;12.70;7.00;;;15.60;99.90;;;;;;4989489;28;20742;-89
2023/08/04 02:50:43;;;;;;;8.07;6.97;;;15.60;99.90;;;;;;4985857;28;20485;-88
2023/08/04 02:53:10;;;;;;;9.67;7.67;;;15.50;99.90;;;;;;4995705;28;20870;-90
2023/08/04 02:55:37;;;;;;;8.60;7.10;;;15.50;99.90;;;;;;4994845;28;20430;-90
2023/08/04 02:58:04;;;;;;;12.93;7.30;;;15.50;99.90;;;;;;4980260;28;20485;-90
2023/08/04 03:00:31;;;;;;;7.57;6.77;;;15.40;99.90;;;;;;4995229;28;20513;-91
2023/08/04 03:03:00;;;;;;;9.63;6.67;;;15.40;99.90;;;;;;4995139;28;20426;-90
2023/08/04 03:05:28;;;;;;;13.53;8.10;;;15.40;99.90;;;;;;4994931;28;20528;-90
2023/08/04 03:07:54;;;;;;;9.87;7.50;;;15.40;99.90;;;;;;4986685;28;20504;-90
2023/08/04 03:10:21;;;;;;;8.63;7.30;;;15.40;99.90;;;;;;4995027;28;20451;-90
2023/08/04 03:12:48;;;;;;;8.13;7.27;;;15.40;99.90;;;;;;4994650;28;20466;-89
2023/08/04 03:15:14;;;;;;;14.03;7.33;;;15.40;99.90;;;;;;4989464;28;20442;-90
2023/08/04 03:17:41;;;;;;;10.93;7.33;;;15.30;99.90;;;;;;4983224;28;20482;-90
2023/08/04 03:20:09;;;;;;;13.23;8.40;;;15.30;99.90;;;;;;4988079;28;20426;-90
2023/08/04 03:22:37;;;;;;;20.13;8.50;;;15.30;99.90;;;;;;4977796;28;20456;-90
2023/08/04 03:25:05;;;;;;;9.67;7.40;;;15.30;99.90;;;;;;4994859;28;20418;-90
2023/08/04 03:27:31;;;;;;;12.73;7.77;;;15.30;99.90;;;;;;4994857;28;20488;-89
2023/08/04 03:29:58;;;;;;;11.03;8.10;;;15.30;99.90;;;;;;4979945;28;20476;-91
2023/08/04 03:32:25;;;;;;;13.60;7.70;;;15.40;99.90;;;;;;4976028;28;20454;-90
2023/08/04 03:34:51;;;;;;;11.07;7.80;;;15.40;99.90;;;;;;4994459;28;20944;-91
2023/08/04 03:37:18;;;;;;;9.77;8.40;;;15.50;99.90;;;;;;4988525;28;20482;-90
2023/08/04 03:39:46;;;;;;;12.50;7.60;;;15.50;99.90;;;;;;4984907;28;20457;-90
2023/08/04 03:42:13;;;;;;;10.90;8.50;;;15.30;99.90;;;;;;4986774;28;20438;-90
2023/08/04 03:44:39;;;;;;;10.07;7.57;;;15.40;99.90;;;;;;4994314;28;20476;-90
2023/08/04 03:47:06;;;;;;;13.83;7.60;;;15.40;99.90;;;;;;4990272;28;20951;-90
2023/08/04 03:49:33;;;;;;;11.50;8.50;;;15.30;99.90;;;;;;4975109;28;20493;-90
2023/08/04 03:52:00;;;;;;;9.30;7.30;;;15.30;99.90;;;;;;4986809;28;20478;-90
2023/08/04 03:54:26;;;;;;;10.33;8.57;;;15.30;99.90;;;;;;4994335;28;21019;-90
2023/08/04 03:56:55;;;;;;;9.43;8.43;;;15.30;99.90;;;;;;4994574;28;20455;-90
2023/08/04 03:59:21;;;;;;;11.90;7.70;;;15.30;99.90;;;;;;4986542;28;20565;-90
2023/08/04 04:01:48;;;;;;;12.00;8.87;;;15.40;99.90;;;;;;4978279;28;20502;-90
2023/08/04 04:04:15;;;;;;;11.10;8.40;;;15.40;99.90;;;;;;4994355;28;20903;-91
2023/08/04 04:06:41;;;;;;;13.03;8.80;;;15.40;99.90;;;;;;4985148;28;20480;-90
2023/08/04 04:09:08;;;;;;;9.27;8.37;;;15.40;99.90;;;;;;4978788;28;20482;-90
2023/08/04 04:11:34;;;;;;;9.60;8.40;;;15.40;99.90;;;;;;4993896;28;20463;-91
2023/08/04 04:14:03;;;;;;;13.57;8.80;;;15.40;99.90;;;;;;4993994;28;20483;-89
2023/08/04 04:16:30;;;;;;;11.87;8.60;;;15.40;99.90;;;;;;4994074;28;20933;-88
2023/08/04 04:18:57;;;;;;;12.90;8.60;;;15.50;99.90;;;;;;4977898;28;21040;-90
2023/08/04 04:21:23;;;;;;;13.00;8.60;;;15.50;99.90;;;;;;4993889;28;20447;-89
2023/08/04 04:23:50;;;;;;;11.33;7.50;;;15.50;99.90;;;;;;4994145;28;21015;-90
2023/08/04 04:26:17;;;;;;;13.43;8.40;;;15.40;99.90;;;;;;4994282;28;20551;-91
2023/08/04 04:28:43;;;;;;;14.93;9.10;;;15.50;99.90;;;;;;4985376;28;20491;-90
2023/08/04 04:31:11;;;;;;;13.47;9.03;;;15.50;99.90;;;;;;4979169;28;20928;-90
2023/08/04 04:33:38;;;;;;;17.10;9.53;;;15.50;99.90;;;;;;4986669;28;20491;-90
2023/08/04 04:36:05;;;;;;;16.97;9.20;;;15.50;99.90;;;;;;4986886;28;20451;-89
2023/08/04 04:38:32;;;;;;;17.90;9.23;;;15.50;99.90;;;;;;4995041;28;20506;-91
2023/08/04 04:41:00;;;;;;;13.57;9.73;;;15.50;99.90;;;;;;4994462;28;20945;-90
2023/08/04 04:43:27;;;;;;;14.17;9.10;;;15.50;99.90;;;;;;4995164;28;20479;-90
2023/08/04 04:45:55;;;;;;;11.83;9.33;;;15.50;99.90;;;;;;4989580;28;20448;-91
2023/08/04 04:48:24;;;;;;;14.43;10.00;;;15.50;99.90;;;;;;4989652;28;20471;-90
2023/08/04 04:50:52;;;;;;;13.07;10.30;;;15.50;99.90;;;;;;5004309;28;20409;-91
2023/08/04 04:53:19;;;;;;;13.77;10.40;;;15.50;99.90;;;;;;4984399;28;20534;-91
2023/08/04 04:55:45;;;;;;;16.70;10.33;;;15.50;99.90;;;;;;4990731;28;20482;-90
2023/08/04 04:58:13;;;;;;;18.80;10.80;;;15.60;99.90;;;;;;4993450;28;20483;-91
2023/08/04 05:00:40;;;;;;;22.73;11.70;;;15.60;99.90;;;;;;4993307;28;20505;-90
2023/08/04 05:03:08;;;;;;;16.07;10.83;;;15.60;99.90;;;;;;4993022;28;20502;-89
2023/08/04 05:05:37;;;;;;;15.27;11.63;;;15.60;99.90;;;;;;4992153;28;20459;-89
2023/08/04 05:08:04;;;;;;;15.97;11.90;;;15.70;99.90;;;;;;4985271;28;20486;-91
2023/08/04 05:10:31;;;;;;;16.80;11.43;;;15.60;99.90;;;;;;4993415;28;20518;-91
2023/08/04 05:12:58;;;;;;;15.20;12.10;;;15.60;99.90;;;;;;4993593;28;20522;-91
2023/08/04 05:15:24;;;;;;;16.37;11.03;;;15.60;99.90;;;;;;4993119;28;20510;-90
2023/08/04 05:17:51;;;;;;;17.63;10.90;;;15.60;99.90;;;;;;4984503;28;20476;-89
2023/08/04 05:20:18;;;;;;;18.40;12.20;;;15.60;99.90;;;;;;4992966;28;20451;-90
2023/08/04 05:22:46;;;;;;;17.30;11.67;;;15.70;99.90;;;;;;4992955;28;20463;-91
2023/08/04 05:25:12;;;;;;;19.43;12.07;;;15.70;99.90;;;;;;4993130;28;20422;-91
2023/08/04 05:27:39;;;;;;;18.63;11.47;;;15.90;99.90;;;;;;4993615;28;20965;-91
2023/08/04 05:30:07;;;;;;;20.17;11.57;;;15.80;99.90;;;;;;4992370;28;20430;-89
2023/08/04 05:32:34;;;;;;;21.40;11.60;;;15.70;99.90;;;;;;4981455;28;20879;-92
2023/08/04 05:35:01;;;;;;;15.10;11.30;;;15.80;99.90;;;;;;4984302;28;20491;-91
2023/08/04 05:37:27;;;;;;;14.93;12.17;;;15.80;99.90;;;;;;4993697;28;20434;-91
2023/08/04 05:39:55;;;;;;;17.30;11.47;;;15.90;99.90;;;;;;5000032;28;20435;-93
2023/08/04 05:42:22;;;;;;;16.20;11.80;;;15.90;99.90;;;;;;5017514;28;20418;-91
2023/08/04 05:44:49;;;;;;;16.00;12.30;;;15.90;99.90;;;;;;4996914;28;20452;-90
2023/08/04 05:47:15;;;;;;;18.93;13.00;;;15.90;99.90;;;;;;4992697;28;20439;-91
2023/08/04 05:49:42;;;;;;;21.70;12.87;;;15.90;99.90;;;;;;4981567;28;20554;-91
2023/08/04 05:52:09;;;;;;;19.97;12.80;;;15.90;99.90;;;;;;4976799;28;20466;-91
2023/08/04 05:54:35;;;;;;;15.80;12.37;;;16.00;99.90;;;;;;4992579;28;20487;-91
2023/08/04 05:57:04;;;;;;;22.77;12.20;;;16.00;99.90;;;;;;4993958;28;20459;-90
2023/08/04 05:59:31;;;;;;;19.40;11.90;;;16.10;99.90;;;;;;4992396;28;20860;-90
2023/08/04 06:01:58;;;;;;;18.37;13.30;;;16.10;99.90;;;;;;4992274;28;20976;-91
2023/08/04 06:04:24;;;;;;;24.03;12.83;;;16.10;99.90;;;;;;4979632;28;20456;-90
2023/08/04 06:06:51;;;;;;;17.77;12.93;;;16.10;99.90;;;;;;4989292;28;20488;-90
2023/08/04 06:09:18;;;;;;;24.30;11.97;;;16.20;99.90;;;;;;4977451;28;20492;-91
2023/08/04 06:11:45;;;;;;;14.60;12.20;;;16.30;99.90;;;;;;4992647;28;20462;-91
2023/08/04 06:14:13;;;;;;;19.80;11.90;;;16.20;99.90;;;;;;4992732;28;20514;-91
2023/08/04 06:16:40;;;;;;;19.10;12.70;;;16.20;99.90;;;;;;4985251;28;20499;-91
2023/08/04 06:19:07;;;;;;;18.93;11.40;;;16.30;99.90;;;;;;4984089;28;20479;-90
2023/08/04 06:21:35;;;;;;;21.57;11.90;;;16.20;99.90;;;;;;4992402;28;20870;-91
2023/08/04 06:24:03;;;;;;;17.73;12.43;;;16.20;99.90;;;;;;4992350;28;20933;-91
2023/08/04 06:26:29;;;;;;;16.90;12.70;;;16.20;99.90;;;;;;4992475;28;20445;-90
2023/08/04 06:28:56;;;;;;;19.90;12.87;;;16.30;99.90;;;;;;4992541;28;20561;-91
2023/08/04 06:31:24;;;;;;;16.50;12.50;;;16.30;99.90;;;;;;4987017;28;20466;-90
2023/08/04 06:33:51;;;;;;;17.73;11.80;;;16.40;99.90;;;;;;4992972;28;20490;-91
2023/08/04 06:36:18;;;;;;;22.40;12.73;;;16.40;99.90;;;;;;4988036;28;20427;-91
2023/08/04 06:38:45;;;;;;;18.97;12.70;;;16.50;99.90;;;;;;4980595;28;20992;-91
2023/08/04 06:41:11;;;;;;;22.23;11.40;;;16.50;99.90;;;;;;4991825;28;20451;-91
2023/08/04 06:43:38;;;;;;;18.00;12.63;;;16.70;99.90;;;;;;4993043;28;20489;-88
2023/08/04 06:46:05;;;;;;;22.23;12.67;;;16.80;99.90;;;;;;4982140;28;20455;-90
2023/08/04 06:48:33;;;;;;;17.40;12.27;;;16.90;99.90;;;;;;4985844;28;20486;-90
2023/08/04 06:50:59;;;;;;;24.23;12.60;;;17.00;99.90;;;;;;4983126;28;20459;-90
2023/08/04 06:53:26;;;;;;;17.10;11.77;;;17.10;99.90;;;;;;4980038;28;20448;-91
2023/08/04 06:55:53;;;;;;;16.33;11.03;;;17.10;99.90;;;;;;4989988;28;20566;-89
2023/08/04 06:58:19;;;;;;;18.00;10.70;;;17.10;99.90;;;;;;4996387;28;21020;-90
2023/08/04 07:00:46;;;;;;;14.90;10.50;;;17.20;99.90;;;;;;4980678;28;20523;-89
2023/08/04 07:03:14;;;;;;;15.30;10.33;;;17.30;99.90;;;;;;4995130;28;20447;-90
2023/08/04 07:05:42;;;;;;;15.13;10.53;;;17.30;99.90;;;;;;4993378;28;20482;-91
2023/08/04 07:08:09;;;;;;;13.43;10.70;;;17.40;99.90;;;;;;4986426;28;20463;-89
2023/08/04 07:10:36;;;;;;;23.43;10.50;;;17.40;99.90;;;;;;4989569;28;20434;-90
2023/08/04 07:13:02;;;;;;;11.27;9.27;;;17.60;99.90;;;;;;4993816;28;20547;-91
2023/08/04 07:15:29;;;;;;;14.77;8.47;;;17.70;99.90;;;;;;4994883;28;20483;-90
2023/08/04 07:17:56;;;;;;;20.83;9.30;;;17.80;99.90;;;;;;4995139;28;21001;-90
2023/08/04 07:20:23;;;;;;;14.23;8.70;;;18.00;99.90;;;;;;4995158;28;20820;-89
2023/08/04 07:22:51;;;;;;;12.47;8.20;;;18.30;99.90;;;;;;4994841;28;20467;-90
2023/08/04 07:25:17;;;;;;;15.10;8.10;;;18.50;99.90;;;;;;4983334;28;20448;-90
2023/08/04 07:27:44;;;;;;;12.90;8.33;;;18.90;99.90;;;;;;4991088;28;20447;-89
2023/08/04 07:30:13;;;;;;;17.33;8.27;;;19.20;99.90;;;;;;4976257;28;20456;-90
2023/08/04 07:32:40;;;;;;;12.53;8.83;;;19.50;99.90;;;;;;4989980;28;20455;-89
2023/08/04 07:35:07;;;;;;;17.07;7.87;;;19.80;99.90;;;;;;4992686;28;20483;-91
2023/08/04 07:37:34;;;;;;;11.10;7.63;;;20.00;99.90;;;;;;4989527;28;20456;-90
2023/08/04 07:40:02;;;;;;;13.00;8.03;;;20.10;99.90;;;;;;4979854;28;20456;-91
2023/08/04 07:42:29;;;;;;;7.53;6.50;;;20.00;99.90;;;;;;4996064;28;20491;-91
2023/08/04 07:44:56;;;;;;;8.97;7.07;;;19.90;99.90;;;;;;4995699;28;20454;-90
2023/08/04 07:47:22;;;;;;;10.03;7.50;;;19.90;99.90;;;;;;4995775;28;20868;-91
2023/08/04 07:49:49;;;;;;;11.40;7.20;;;19.60;99.90;;;;;;4983212;28;20539;-90
2023/08/04 07:52:16;;;;;;;12.13;7.33;;;19.70;99.90;;;;;;4994870;28;20447;-91
2023/08/04 07:54:42;;;;;;;10.37;7.30;;;19.50;99.90;;;;;;4986934;28;20483;-91
2023/08/04 07:57:10;;;;;;;7.40;6.03;;;19.60;99.90;;;;;;4984763;28;20455;-89
2023/08/04 07:59:37;;;;;;;13.10;6.67;;;19.50;99.90;;;;;;4983678;28;21142;-90
2023/08/04 08:02:04;;;;;;;8.57;6.97;;;19.30;99.90;;;;;;4983611;28;20448;-91
2023/08/04 08:04:31;;;;;;;14.17;7.17;;;19.50;99.90;;;;;;4990452;28;20569;-90
2023/08/04 08:06:57;;;;;;;13.20;7.77;;;19.60;99.90;;;;;;4988049;28;20459;-90
2023/08/04 08:09:24;;;;;;;9.97;6.73;;;19.60;99.90;;;;;;4983872;28;20507;-88
2023/08/04 08:11:51;;;;;;;13.80;6.30;;;19.60;99.90;;;;;;4992853;28;20470;-90
2023/08/04 08:14:19;;;;;;;8.17;6.47;;;19.60;99.90;;;;;;4998025;28;20511;-91
2023/08/04 08:16:46;;;;;;;7.43;5.43;;;19.60;99.90;;;;;;4991768;28;20743;-91
2023/08/04 08:19:13;;;;;;;9.57;6.10;;;19.70;99.90;;;;;;4994606;28;20538;-90
2023/08/04 08:21:41;;;;;;;11.63;5.97;;;19.60;99.90;;;;;;4995066;28;20451;-89
2023/08/04 08:24:08;;;;;;;9.70;5.97;;;19.40;99.90;;;;;;4995209;28;20893;-91
2023/08/04 08:26:35;;;;;;;10.83;6.40;;;19.40;99.90;;;;;;4989679;28;21178;-90
2023/08/04 08:29:02;;;;;;;12.17;7.27;;;19.20;99.90;;;;;;4984224;28;20483;-90
2023/08/04 08:31:30;;;;;;;14.20;7.00;;;19.10;99.90;;;;;;4994405;28;20812;-91
2023/08/04 08:33:57;;;;;;;13.43;7.50;;;19.00;99.90;;;;;;4994821;28;20463;-90
2023/08/04 08:36:23;;;;;;;9.03;6.50;;;19.00;99.90;;;;;;4994918;28;20505;-91
2023/08/04 08:38:50;;;;;;;9.13;5.90;;;19.00;99.90;;;;;;4987123;28;20879;-91
2023/08/04 08:41:17;;;;;;;11.50;6.20;;;18.90;99.90;;;;;;4979388;28;20451;-91
2023/08/04 08:43:45;;;;;;;9.70;6.50;;;18.90;99.90;;;;;;4987593;28;20513;-91
2023/08/04 08:46:12;;;;;;;9.10;6.07;;;18.80;99.90;;;;;;4979792;28;20445;-91
2023/08/04 08:48:44;;;;;;;12.40;5.80;;;18.80;99.90;;;;;;5013600;28;20478;-93
2023/08/04 08:51:15;;;;;;;12.83;5.80;;;18.90;99.90;;;;;;5008624;28;20470;-92
2023/08/04 08:53:44;;;;;;;7.93;5.67;;;18.90;99.90;;;;;;4992138;28;20506;-91
2023/08/04 08:56:11;;;;;;;11.77;5.50;;;18.90;99.90;;;;;;4984864;28;20566;-90
2023/08/04 08:58:39;;;;;;;9.30;5.20;;;19.00;99.90;;;;;;4994724;28;20463;-90
2023/08/04 09:01:06;;;;;;;18.50;6.37;;;19.00;99.90;;;;;;4986481;28;20510;-88
2023/08/04 09:03:35;;;;;;;7.10;5.27;;;19.30;99.90;;;;;;4981215;28;20444;-89
2023/08/04 09:06:03;;;;;;;14.00;5.40;;;19.10;99.90;;;;;;4991806;28;20510;-89
2023/08/04 09:08:31;;;;;;;9.70;6.17;;;19.20;99.90;;;;;;4994260;28;20522;-87
2023/08/04 09:10:58;;;;;;;8.47;5.00;;;19.10;99.90;;;;;;4994828;28;20929;-89
2023/08/04 09:13:26;;;;;;;6.30;5.33;;;19.30;99.90;;;;;;4994853;28;20972;-89
2023/08/04 09:15:54;;;;;;;13.43;6.07;;;19.10;99.90;;;;;;4995030;28;20518;-88
2023/08/04 09:18:26;;;;;;;9.43;5.47;;;19.10;99.90;;;;;;4975084;28;20547;-90
2023/08/04 09:20:59;;;;;;;13.00;5.87;;;19.10;99.90;;;;;;4989780;28;20546;-90
2023/08/04 09:23:29;;;;;;;11.90;6.60;;;19.10;99.90;;;;;;4995939;28;20447;-90
2023/08/04 09:25:56;;;;;;;10.60;6.20;;;19.20;99.90;;;;;;4993608;28;20448;-90
2023/08/04 09:28:23;;;;;;;13.53;5.60;;;19.10;99.90;;;;;;4993691;28;20462;-88
2023/08/04 09:31:04;;;;;;;9.33;5.50;;;19.10;99.90;;;;;;4994644;28;20452;-89
2023/08/04 09:33:31;;;;;;;11.10;5.77;;;19.30;99.90;;;;;;4983103;28;20456;-90
2023/08/04 09:36:06;;;;;;;9.20;5.47;;;19.30;99.90;;;;;;4980273;28;20542;-88
2023/08/04 09:38:35;;;;;;;9.07;5.47;;;19.40;99.90;;;;;;4991409;28;20534;-91
2023/08/04 09:41:02;;;;;;;7.80;5.40;;;19.40;99.90;;;;;;4991104;28;20482;-90
2023/08/04 09:43:29;;;;;;;9.53;5.80;;;19.50;99.90;;;;;;4994310;28;20447;-90
2023/08/04 09:45:58;;;;;;;6.10;4.70;;;19.50;99.90;;;;;;4994812;28;20471;-90
2023/08/04 09:48:28;;;;;;;11.40;6.07;;;19.60;99.90;;;;;;4993002;28;20467;-89
2023/08/04 09:51:09;;;;;;;8.87;5.77;;;19.70;99.90;;;;;;4982526;28;20446;-91
2023/08/04 09:53:42;;;;;;;10.10;4.90;;;19.70;99.90;;;;;;4990925;28;20451;-90
2023/08/04 09:56:10;;;;;;;9.33;5.60;;;19.70;99.90;;;;;;4985655;28;21030;-89
2023/08/04 09:58:36;;;;;;;10.37;5.20;;;19.60;99.90;;;;;;4993918;28;20475;-89
2023/08/04 10:01:04;;;;;;;6.33;5.13;;;19.80;99.90;;;;;;4995459;28;20462;-87
2023/08/04 10:03:30;;;;;;;6.73;5.33;;;19.70;99.90;;;;;;4994355;28;20456;-90
2023/08/04 10:06:00;;;;;;;8.80;5.63;;;19.90;99.90;;;;;;4994464;28;20481;-90
2023/08/04 10:08:29;;;;;;;13.77;6.40;;;20.00;99.90;;;;;;4978376;28;20493;-90
2023/08/04 10:10:58;;;;;;;15.40;5.63;;;20.10;99.90;;;;;;4978930;28;20445;-90
2023/08/04 10:13:25;;;;;;;7.10;5.40;;;20.20;99.90;;;;;;4978278;28;20447;-90
2023/08/04 10:15:53;;;;;;;7.03;5.20;;;20.30;99.90;;;;;;4979343;28;20564;-90
2023/08/04 10:18:19;;;;;;;6.57;5.43;;;20.40;99.90;;;;;;4982662;28;20480;-90
2023/08/04 10:20:46;;;;;;;8.70;4.70;;;20.50;99.90;;;;;;4988167;28;20455;-88
2023/08/04 10:23:13;;;;;;;10.60;5.50;;;20.70;99.90;;;;;;4978024;28;20460;-90
2023/08/04 10:25:53;;;;;;;7.43;5.20;;;20.80;99.90;;;;;;4994048;28;20486;-90
2023/08/04 10:28:22;;;;;;;5.63;4.63;;;20.80;99.90;;;;;;4993397;28;20467;-90
2023/08/04 10:31:03;;;;;;;8.33;5.20;;;20.90;99.90;;;;;;4981211;28;20452;-90
2023/08/04 10:33:30;;;;;;;6.67;4.47;;;20.90;99.90;;;;;;4997587;28;20699;-90
2023/08/04 10:36:08;;;;;;;10.83;4.93;;;20.80;99.90;;;;;;4999296;28;20541;-90
2023/08/04 10:38:46;;;;;;;4.37;3.60;;;20.80;99.90;;;;;;4997429;28;20470;-90
2023/08/04 10:41:12;;;;;;;3.20;2.67;;;20.90;99.90;;;;;;4996648;28;20447;-90
2023/08/04 10:43:41;;;;;;;3.23;2.60;;;20.80;99.90;;;;;;4982453;28;20972;-90
2023/08/04 10:46:11;;;;;;;6.73;2.63;;;21.00;99.90;;;;;;4997841;28;20914;-90
2023/08/04 10:48:40;;;;;;;4.10;2.80;;;21.00;99.90;;;;;;4994794;28;20478;-90
2023/08/04 10:51:08;;;;;;;2.50;2.40;;;21.00;99.90;;;;;;4993557;28;20448;-90
2023/08/04 10:53:36;;;;;;;4.70;3.00;;;21.10;99.90;;;;;;4997383;28;20458;-90
2023/08/04 10:56:06;;;;;;;2.93;2.20;;;21.30;99.90;;;;;;4989680;28;20479;-90
2023/08/04 10:58:33;;;;;;;6.40;2.80;;;21.30;99.90;;;;;;4970577;28;20534;-90
2023/08/04 11:01:01;;;;;;;3.80;2.60;;;21.30;99.90;;;;;;4993209;28;20447;-91
2023/08/04 11:03:29;;;;;;;19.43;4.40;;;21.70;99.90;;;;;;4989431;28;20454;-91
2023/08/04 11:05:57;;;;;;;5.10;2.40;;;21.70;99.90;;;;;;4992202;28;20863;-90
2023/08/04 11:08:25;;;;;;;3.90;2.90;;;22.20;99.90;;;;;;4987460;28;20463;-90
2023/08/04 11:10:52;;;;;;;2.67;2.47;;;22.30;99.90;;;;;;4997742;28;20456;-90
2023/08/04 11:13:22;;;;;;;2.93;2.30;;;22.50;99.90;;;;;;4996757;28;20451;-90
2023/08/04 11:15:49;;;;;;;2.53;2.33;;;22.50;99.90;;;;;;4997620;28;20489;-90
2023/08/04 11:18:23;;;;;;;4.77;3.00;;;22.30;99.90;;;;;;4996701;28;20475;-90
2023/08/04 11:20:50;;;;;;;2.53;2.33;;;22.70;99.90;;;;;;4998840;28;20455;-90
2023/08/04 11:23:25;;;;;;;3.33;1.93;;;23.10;99.90;;;;;;4998719;28;20802;-90
2023/08/04 11:25:52;;;;;;;6.30;2.00;;;23.00;99.90;;;;;;4996711;28;20529;-89
2023/08/04 11:28:20;;;;;;;2.70;2.10;;;22.90;99.90;;;;;;4996174;28;20501;-89
2023/08/04 11:30:47;;;;;;;2.17;1.97;;;22.70;99.90;;;;;;4981449;28;21021;-87
2023/08/04 11:33:15;;;;;;;2.90;2.00;;;22.60;99.90;;;;;;4996145;28;20525;-88
2023/08/04 11:35:44;;;;;;;2.30;2.10;;;22.50;99.90;;;;;;4993570;28;20484;-89
2023/08/04 11:38:11;;;;;;;2.07;1.70;;;22.40;99.90;;;;;;4985455;28;20471;-89
2023/08/04 11:40:54;;;;;;;3.17;2.17;;;22.20;99.90;;;;;;4996479;28;20949;-90
2023/08/04 11:43:21;;;;;;;4.60;1.80;;;22.00;99.90;;;;;;4994940;28;20455;-89
2023/08/04 11:45:49;;;;;;;4.30;2.30;;;21.80;99.90;;;;;;4996119;28;20486;-90
2023/08/04 11:48:16;;;;;;;4.13;2.43;;;21.70;99.90;;;;;;4996091;28;20541;-89
2023/08/04 11:50:44;;;;;;;3.70;2.20;;;21.80;99.90;;;;;;4982449;28;20949;-87
2023/08/04 11:53:14;;;;;;;3.20;2.00;;;21.50;99.90;;;;;;5017439;28;20427;-90
2023/08/04 11:55:56;;;;;;;5.23;1.80;;;21.40;99.90;;;;;;5006517;28;20478;-89
2023/08/04 11:58:34;;;;;;;9.67;2.40;;;21.50;99.90;;;;;;4996562;28;20833;-89
2023/08/04 12:01:01;;;;;;;3.30;2.20;;;21.00;99.90;;;;;;4996347;28;20486;-90
2023/08/04 12:03:46;;;;;;;2.80;1.80;;;20.90;99.90;;;;;;4980848;28;20927;-88
2023/08/04 12:06:17;;;;;;;3.17;2.13;;;20.80;99.90;;;;;;4990760;28;20456;-88
2023/08/04 12:08:51;;;;;;;2.40;2.20;;;20.80;99.90;;;;;;4989514;28;20468;-88
2023/08/04 12:11:18;;;;;;;2.93;2.30;;;20.80;99.90;;;;;;4995573;28;20448;-90
2023/08/04 12:13:45;;;;;;;3.27;2.43;;;20.80;99.90;;;;;;4983555;28;20452;-90
2023/08/04 12:16:12;;;;;;;2.70;2.50;;;20.70;99.90;;;;;;4992535;28;20491;-89
2023/08/04 12:18:40;;;;;;;4.43;2.60;;;20.70;99.90;;;;;;4984049;28;20476;-90
2023/08/04 12:21:10;;;;;;;2.43;2.23;;;20.70;99.90;;;;;;4984228;28;20460;-90
2023/08/04 12:23:38;;;;;;;7.60;2.93;;;21.00;99.90;;;;;;4988127;28;20451;-90
2023/08/04 12:26:05;;;;;;;2.90;2.40;;;20.90;99.90;;;;;;4996183;28;20485;-91
2023/08/04 12:28:31;;;;;;;3.60;2.70;;;20.90;99.90;;;;;;4979729;28;20460;-90
2023/08/04 12:30:58;;;;;;;4.80;2.57;;;20.90;99.90;;;;;;4993999;28;20866;-90
2023/08/04 12:33:25;;;;;;;5.47;3.40;;;20.90;99.90;;;;;;4988295;28;20977;-90
2023/08/04 12:35:52;;;;;;;5.03;2.63;;;20.90;99.90;;;;;;4995553;28;20487;-89
2023/08/04 12:38:19;;;;;;;4.80;3.03;;;20.90;99.90;;;;;;4994971;28;20474;-90
2023/08/04 12:40:48;;;;;;;3.10;2.77;;;20.80;99.90;;;;;;4995767;28;20458;-87
2023/08/04 12:43:15;;;;;;;5.53;3.10;;;20.90;99.90;;;;;;4995703;28;20459;-90